Time;durP1;ratioP1;P1;durP2;ratioP2;P2;SDS_P1;SDS_P2;PMS_P1;PMS_P2;Temp;Humidity;BMP_temperature;BMP_pressure;BME280_temperature;BME280_humidity;BME280_pressure;Samples;Min_cycle;Max_cycle;Signal;HPM_P1;HPM_P2
2022/09/29 00:00:43;;;;;;;3.95;3.65;;;;;;;8.23;93.15;98578.41;1727775;83;20995;-80
2022/09/29 00:03:10;;;;;;;3.52;3.33;;;;;;;8.20;92.86;98584.61;1727832;83;21130;-79
2022/09/29 00:05:36;;;;;;;4.40;3.40;;;;;;;8.13;92.33;98580.08;1727660;83;21122;-79
2022/09/29 00:08:03;;;;;;;9.60;3.42;;;;;;;8.09;92.05;98581.59;1727807;83;21099;-80
2022/09/29 00:10:30;;;;;;;8.85;3.58;;;;;;;8.04;91.73;98580.45;1727887;83;21053;-79
2022/09/29 00:12:57;;;;;;;5.50;2.98;;;;;;;7.99;91.21;98587.17;1727779;83;21081;-79
2022/09/29 00:15:24;;;;;;;5.22;3.50;;;;;;;7.93;91.31;98590.02;1728190;83;21175;-80
2022/09/29 00:17:51;;;;;;;5.58;3.80;;;;;;;7.89;91.46;98592.84;1727797;83;21054;-80
2022/09/29 00:20:18;;;;;;;3.83;3.42;;;;;;;7.87;91.73;98592.02;1728215;83;21112;-82
2022/09/29 00:22:49;;;;;;;3.92;3.58;;;;;;;7.87;91.90;98594.20;1727590;83;21323;-79
2022/09/29 00:25:17;;;;;;;8.23;3.52;;;;;;;7.86;92.00;98594.27;1728164;83;20990;-80
2022/09/29 00:27:44;;;;;;;4.92;4.30;;;;;;;7.81;92.11;98604.44;1727796;82;22798;-80
2022/09/29 00:30:11;;;;;;;6.25;4.47;;;;;;;7.79;92.76;98608.89;1728061;83;21070;-79
2022/09/29 00:32:38;;;;;;;8.25;3.65;;;;;;;7.81;93.75;98611.45;1727703;83;21124;-80
2022/09/29 00:35:07;;;;;;;4.37;3.60;;;;;;;7.84;94.28;98611.81;1728239;83;21553;-81
2022/09/29 00:37:34;;;;;;;4.55;3.85;;;;;;;7.80;94.37;98607.99;1727912;83;21051;-79
2022/09/29 00:40:02;;;;;;;4.17;3.67;;;;;;;7.79;94.40;98616.75;1728079;83;21252;-81
2022/09/29 00:42:30;;;;;;;5.70;3.37;;;;;;;7.79;94.32;98616.75;1727506;83;21053;-79
2022/09/29 00:45:14;;;;;;;7.05;3.47;;;;;;;7.81;94.14;98614.08;1727918;83;21022;-79
2022/09/29 00:47:42;;;;;;;6.65;3.10;;;;;;;7.79;93.79;98608.05;1727494;83;21335;-79
2022/09/29 00:50:17;;;;;;;6.10;3.40;;;;;;;7.77;93.45;98612.50;1727995;83;21042;-79
2022/09/29 00:52:47;;;;;;;10.88;2.87;;;;;;;7.74;93.20;98611.30;1728156;83;21121;-80
2022/09/29 00:55:33;;;;;;;3.58;3.05;;;;;;;7.70;92.60;98624.96;1728032;83;21129;-80
2022/09/29 00:58:11;;;;;;;3.42;2.95;;;;;;;7.68;92.38;98628.07;1727138;81;21528;-81
2022/09/29 01:00:38;;;;;;;3.75;3.40;;;;;;;7.64;92.34;98631.73;1725518;83;21561;-79
2022/09/29 01:03:07;;;;;;;5.20;3.25;;;;;;;7.61;92.26;98633.14;1726067;83;20979;-80
2022/09/29 01:05:38;;;;;;;5.00;3.00;;;;;;;7.58;92.15;98639.80;1725001;83;21559;-80
2022/09/29 01:08:14;;;;;;;5.97;3.40;;;;;;;7.57;92.13;98646.80;1725742;83;21062;-79
2022/09/29 01:10:41;;;;;;;3.40;3.10;;;;;;;7.56;92.38;98652.09;1725708;83;21037;-81
2022/09/29 01:13:08;;;;;;;3.10;2.80;;;;;;;7.52;92.28;98651.81;1702247;83;21024;-80
2022/09/29 01:15:35;;;;;;;7.15;2.75;;;;;;;7.50;92.47;98654.48;1725771;83;21486;-79
2022/09/29 01:18:02;;;;;;;4.30;3.17;;;;;;;7.50;92.43;98649.25;1725831;83;22114;-80
2022/09/29 01:20:31;;;;;;;3.22;3.00;;;;;;;7.50;92.33;98653.61;1725357;83;21003;-80
2022/09/29 01:23:36;;;;;;;5.08;3.00;;;;;;;7.49;92.45;98644.06;1725871;83;21410;-79
2022/09/29 01:26:51;;;;;;;3.02;2.83;;;;;;;7.49;92.56;98640.98;1725483;83;27062;-78
2022/09/29 01:29:48;;;;;;;6.22;2.85;;;;;;;7.51;92.60;98642.24;1725614;83;21482;-79
2022/09/29 01:32:58;;;;;;;3.50;3.20;;;;;;;7.52;92.44;98646.58;1725527;83;21267;-80
2022/09/29 01:35:51;;;;;;;3.30;2.77;;;;;;;7.51;92.70;98650.09;1725656;83;21054;-79
2022/09/29 01:38:56;;;;;;;3.58;3.30;;;;;;;7.53;93.52;98648.27;1725800;83;21112;-80
2022/09/29 01:41:28;;;;;;;3.00;2.80;;;;;;;7.55;94.14;98651.71;1717447;83;21105;-79
2022/09/29 01:44:11;;;;;;;2.83;2.60;;;;;;;7.56;94.65;98650.78;1725983;83;21093;-79
2022/09/29 01:46:55;;;;;;;5.30;2.87;;;;;;;7.56;94.67;98661.25;1725951;83;22020;-79
2022/09/29 01:49:21;;;;;;;3.12;2.67;;;;;;;7.55;94.83;98672.19;1713752;83;21022;-79
2022/09/29 01:52:00;;;;;;;7.45;3.15;;;;;;;7.59;95.65;98671.62;1726066;83;21015;-80
2022/09/29 01:54:53;;;;;;;3.37;3.08;;;;;;;7.60;96.06;98677.27;1725779;83;21588;-80
2022/09/29 01:57:40;;;;;;;4.30;2.98;;;;;;;7.62;96.63;98681.98;1726317;83;21596;-82
2022/09/29 02:00:14;;;;;;;3.00;2.80;;;;;;;7.65;97.29;98672.72;1725793;83;21136;-80
2022/09/29 02:02:55;;;;;;;2.52;2.33;;;;;;;7.71;97.91;98663.77;1726300;83;21717;-80
2022/09/29 02:05:32;;;;;;;3.05;2.85;;;;;;;7.73;97.73;98673.30;1725886;83;21991;-81
2022/09/29 02:08:14;;;;;;;5.42;2.70;;;;;;;7.71;97.53;98682.95;1713372;83;21069;-80
2022/09/29 02:10:48;;;;;;;2.77;2.67;;;;;;;7.68;97.25;98681.74;1699907;83;21022;-79
2022/09/29 02:13:15;;;;;;;3.02;2.83;;;;;;;7.71;97.03;98680.80;1726300;83;21118;-81
2022/09/29 02:15:45;;;;;;;5.08;3.10;;;;;;;7.72;96.83;98674.19;1725598;83;21058;-80
2022/09/29 02:18:25;;;;;;;4.55;3.00;;;;;;;7.73;96.83;98690.31;1726111;83;21026;-77
2022/09/29 02:20:51;;;;;;;3.87;2.52;;;;;;;7.75;96.80;98688.48;1725787;83;20991;-79
2022/09/29 02:23:17;;;;;;;4.40;2.90;;;;;;;7.76;96.64;98692.80;1726239;82;21070;-79
2022/09/29 02:25:45;;;;;;;3.60;3.22;;;;;;;7.78;96.36;98688.38;1725723;83;21205;-80
2022/09/29 02:28:11;;;;;;;3.17;2.45;;;;;;;7.76;96.42;98691.48;1726238;83;21474;-79
2022/09/29 02:30:39;;;;;;;4.05;2.70;;;;;;;7.76;96.41;98677.09;1725874;83;21145;-80
2022/09/29 02:33:11;;;;;;;3.50;3.00;;;;;;;7.77;96.30;98680.58;1725949;83;21522;-79
2022/09/29 02:35:50;;;;;;;5.15;3.00;;;;;;;7.79;96.13;98687.45;1724484;82;21078;-77
2022/09/29 02:38:28;;;;;;;6.45;2.83;;;;;;;7.77;95.87;98690.59;1694963;82;21127;-79
2022/09/29 02:41:34;;;;;;;3.42;3.12;;;;;;;7.76;95.73;98691.48;1724714;82;21316;-79
2022/09/29 02:44:24;;;;;;;10.48;3.20;;;;;;;7.75;95.82;98691.11;1726309;83;21564;-79
2022/09/29 02:47:25;;;;;;;2.40;2.30;;;;;;;7.75;95.95;98691.11;1725872;83;21140;-81
2022/09/29 02:50:23;;;;;;;9.13;2.52;;;;;;;7.76;95.97;98686.25;1725753;83;21651;-80
2022/09/29 02:52:56;;;;;;;7.90;2.80;;;;;;;7.75;95.95;98687.18;1725517;83;21269;-80
2022/09/29 02:55:50;;;;;;;4.72;2.70;;;;;;;7.73;95.86;98685.08;1725976;83;21003;-81
2022/09/29 02:58:35;;;;;;;3.58;2.60;;;;;;;7.74;95.67;98689.39;1722614;82;21109;-81
2022/09/29 03:01:02;;;;;;;3.87;2.70;;;;;;;7.71;95.50;98682.95;1709718;83;21062;-80
2022/09/29 03:03:28;;;;;;;3.02;2.72;;;;;;;7.70;95.40;98690.42;1709907;83;21105;-82
2022/09/29 03:05:55;;;;;;;3.77;2.40;;;;;;;7.68;95.27;98696.61;1709738;83;21570;-80
2022/09/29 03:08:23;;;;;;;4.00;2.27;;;;;;;7.68;95.20;98695.30;1710153;83;21034;-81
2022/09/29 03:10:50;;;;;;;4.00;2.30;;;;;;;7.67;95.15;98698.38;1709768;83;21040;-82
2022/09/29 03:13:18;;;;;;;2.50;2.40;;;;;;;7.64;95.02;98686.70;1709979;83;21004;-80
2022/09/29 03:15:45;;;;;;;2.40;2.20;;;;;;;7.60;94.84;98686.43;1709870;83;21126;-81
2022/09/29 03:18:11;;;;;;;4.40;2.47;;;;;;;7.60;94.87;98693.81;1710249;83;21176;-81
2022/09/29 03:20:38;;;;;;;7.65;2.55;;;;;;;7.60;94.86;98689.05;1709801;83;21111;-82
2022/09/29 03:23:04;;;;;;;3.10;2.50;;;;;;;7.58;94.82;98686.91;1710301;83;21003;-81
2022/09/29 03:25:31;;;;;;;2.50;2.30;;;;;;;7.56;94.62;98695.28;1709831;83;21059;-81
2022/09/29 03:27:58;;;;;;;2.50;2.30;;;;;;;7.53;94.46;98694.08;1710195;83;21605;-81
2022/09/29 03:30:24;;;;;;;3.50;2.42;;;;;;;7.51;94.20;98693.28;1709580;83;21569;-81
2022/09/29 03:32:51;;;;;;;7.22;3.08;;;;;;;7.49;94.11;98700.34;1710198;83;21522;-79
2022/09/29 03:35:17;;;;;;;4.42;3.52;;;;;;;7.46;94.13;98701.75;1709963;83;21593;-79
2022/09/29 03:37:45;;;;;;;8.60;3.45;;;;;;;7.47;94.16;98706.09;1709814;83;21495;-80
2022/09/29 03:40:11;;;;;;;12.05;4.40;;;;;;;7.47;94.12;98713.95;1710057;83;21126;-80
2022/09/29 03:42:38;;;;;;;10.50;4.10;;;;;;;7.47;94.08;98712.64;1709934;83;21229;-79
2022/09/29 03:45:05;;;;;;;7.72;4.28;;;;;;;7.47;94.13;98715.25;1710076;83;21093;-80
2022/09/29 03:47:33;;;;;;;8.95;4.50;;;;;;;7.46;94.18;98712.23;1709959;83;21030;-80
2022/09/29 03:49:59;;;;;;;7.35;4.80;;;;;;;7.44;94.25;98714.42;1709986;83;21138;-79
2022/09/29 03:52:26;;;;;;;7.05;4.40;;;;;;;7.46;94.17;98716.15;1709856;83;21145;-80
2022/09/29 03:54:54;;;;;;;9.63;4.80;;;;;;;7.43;93.99;98716.66;1709887;83;21122;-81
2022/09/29 03:57:21;;;;;;;7.35;4.90;;;;;;;7.42;94.03;98722.80;1709641;83;21054;-79
2022/09/29 03:59:48;;;;;;;11.15;5.72;;;;;;;7.40;94.17;98724.61;1709599;82;20952;-80
2022/09/29 04:02:17;;;;;;;10.93;4.95;;;;;;;7.41;94.34;98729.39;1710048;83;21008;-80
2022/09/29 04:04:43;;;;;;;7.12;4.58;;;;;;;7.43;94.47;98736.30;1709861;83;21379;-81
2022/09/29 04:07:11;;;;;;;11.48;4.40;;;;;;;7.44;94.66;98730.13;1709864;83;21023;-80
2022/09/29 04:09:38;;;;;;;7.58;4.42;;;;;;;7.46;94.71;98741.02;1709915;83;21079;-81
2022/09/29 04:12:05;;;;;;;7.15;4.80;;;;;;;7.44;94.79;98741.06;1709723;83;21507;-81
2022/09/29 04:14:31;;;;;;;5.80;4.37;;;;;;;7.48;94.97;98745.30;1709784;83;21018;-80
2022/09/29 04:16:58;;;;;;;4.67;4.22;;;;;;;7.51;95.20;98743.02;1709777;83;21178;-81
2022/09/29 04:19:24;;;;;;;4.87;4.37;;;;;;;7.51;95.31;98745.64;1710147;83;21118;-81
2022/09/29 04:21:51;;;;;;;5.90;3.98;;;;;;;7.51;95.42;98749.56;1709640;83;21075;-79
2022/09/29 04:24:19;;;;;;;5.45;4.12;;;;;;;7.53;95.48;98752.97;1710384;83;21055;-81
2022/09/29 04:26:45;;;;;;;5.05;3.80;;;;;;;7.55;95.62;98753.80;1709662;83;21137;-79
2022/09/29 04:29:12;;;;;;;6.30;3.85;;;;;;;7.56;95.84;98749.80;1710274;83;21036;-81
2022/09/29 04:31:39;;;;;;;4.05;3.65;;;;;;;7.59;96.04;98747.54;1709595;83;21593;-81
2022/09/29 04:34:06;;;;;;;6.30;4.10;;;;;;;7.62;96.21;98747.44;1710285;83;21573;-80
2022/09/29 04:36:32;;;;;;;3.83;3.47;;;;;;;7.66;96.28;98756.88;1709459;83;21585;-80
2022/09/29 04:38:59;;;;;;;4.10;3.70;;;;;;;7.68;96.40;98760.29;1710145;83;21519;-81
2022/09/29 04:41:27;;;;;;;6.97;3.60;;;;;;;7.70;96.59;98760.24;1709686;83;21088;-81
2022/09/29 04:43:54;;;;;;;3.67;3.37;;;;;;;7.71;96.72;98765.42;1709799;83;21260;-80
2022/09/29 04:46:20;;;;;;;4.50;4.10;;;;;;;7.77;96.88;98756.52;1710080;83;21050;-81
2022/09/29 04:48:47;;;;;;;3.50;3.20;;;;;;;7.80;97.01;98754.64;1709752;83;21007;-80
2022/09/29 04:51:13;;;;;;;4.33;3.40;;;;;;;7.84;97.18;98747.99;1710086;83;21189;-81
2022/09/29 04:53:39;;;;;;;9.73;3.60;;;;;;;7.87;97.26;98743.50;1709917;83;21066;-81
2022/09/29 04:56:07;;;;;;;7.05;3.83;;;;;;;7.94;97.52;98748.06;1710205;83;21244;-81
2022/09/29 04:58:34;;;;;;;6.10;4.15;;;;;;;7.98;97.85;98737.42;1710413;82;21058;-82
2022/09/29 05:01:08;;;;;;;4.50;3.70;;;;;;;8.02;98.28;98731.61;1727785;83;21145;-79
2022/09/29 05:03:35;;;;;;;4.12;3.35;;;;;;;8.06;98.75;98737.13;1727775;83;21093;-82
2022/09/29 05:06:01;;;;;;;4.20;3.80;;;;;;;8.11;99.04;98740.42;1728046;83;21002;-81
2022/09/29 05:08:29;;;;;;;5.60;3.45;;;;;;;8.17;99.29;98744.14;1727814;83;21945;-79
2022/09/29 05:10:56;;;;;;;4.92;3.60;;;;;;;8.21;99.50;98742.72;1728183;83;21680;-82
2022/09/29 05:13:23;;;;;;;5.22;3.80;;;;;;;8.26;99.82;98751.26;1727602;83;21046;-80
2022/09/29 05:15:56;;;;;;;5.35;4.17;;;;;;;8.30;100.00;98748.91;1727842;83;21081;-82
2022/09/29 05:18:24;;;;;;;6.40;4.03;;;;;;;8.35;100.00;98752.20;1727803;83;21604;-81
2022/09/29 05:20:50;;;;;;;5.40;4.55;;;;;;;8.41;100.00;98758.54;1727821;83;21907;-80
2022/09/29 05:23:17;;;;;;;8.88;4.30;;;;;;;8.46;100.00;98757.94;1727842;83;21021;-81
2022/09/29 05:25:44;;;;;;;5.37;4.20;;;;;;;8.51;100.00;98764.33;1727674;83;21078;-81
2022/09/29 05:28:11;;;;;;;6.60;4.10;;;;;;;8.60;100.00;98768.36;1727664;83;21118;-79
2022/09/29 05:30:38;;;;;;;6.00;5.05;;;;;;;8.67;100.00;98761.95;1728146;83;21109;-82
2022/09/29 05:33:05;;;;;;;6.80;3.65;;;;;;;8.77;100.00;98765.08;1727517;83;21290;-80
2022/09/29 05:35:31;;;;;;;6.20;3.22;;;;;;;8.86;100.00;98767.31;1728105;83;21026;-82
2022/09/29 05:37:57;;;;;;;4.87;3.65;;;;;;;8.96;100.00;98767.81;1727445;83;21019;-80
2022/09/29 05:40:24;;;;;;;6.62;3.72;;;;;;;9.07;100.00;98772.18;1727981;82;21061;-77
2022/09/29 05:42:50;;;;;;;4.08;3.45;;;;;;;9.16;100.00;98774.88;1727383;83;21204;-82
2022/09/29 05:45:17;;;;;;;3.37;3.00;;;;;;;9.24;100.00;98764.92;1727934;83;21113;-81
2022/09/29 05:47:44;;;;;;;3.47;2.87;;;;;;;9.32;100.00;98770.72;1727864;83;21109;-82
2022/09/29 05:50:11;;;;;;;5.55;3.10;;;;;;;9.41;100.00;98761.59;1727619;83;21070;-81
2022/09/29 05:52:38;;;;;;;3.72;3.10;;;;;;;9.47;100.00;98763.98;1727627;83;21093;-81
2022/09/29 05:55:10;;;;;;;3.55;3.00;;;;;;;9.52;100.00;98767.27;1727597;83;23081;-82
2022/09/29 05:57:36;;;;;;;5.37;3.65;;;;;;;9.58;100.00;98765.70;1727569;83;21603;-81
2022/09/29 06:00:05;;;;;;;5.67;3.12;;;;;;;9.63;100.00;98770.30;1726248;82;22035;-80
2022/09/29 06:02:33;;;;;;;3.47;2.75;;;;;;;9.67;100.00;98771.86;1725582;83;21030;-82
2022/09/29 06:05:00;;;;;;;3.10;2.90;;;;;;;9.71;100.00;98778.30;1725800;83;21066;-80
2022/09/29 06:07:26;;;;;;;3.05;2.60;;;;;;;9.76;100.00;98771.06;1725560;83;21109;-80
2022/09/29 06:09:53;;;;;;;4.12;2.70;;;;;;;9.81;100.00;98773.03;1725290;83;21148;-80
2022/09/29 06:12:20;;;;;;;5.25;2.62;;;;;;;9.85;100.00;98775.91;1725602;83;21007;-81
2022/09/29 06:14:47;;;;;;;4.17;2.65;;;;;;;9.86;99.90;98766.65;1725961;83;21655;-82
2022/09/29 06:17:13;;;;;;;3.45;2.65;;;;;;;9.93;99.60;98781.69;1725377;83;21580;-82
2022/09/29 06:19:41;;;;;;;2.70;2.50;;;;;;;9.99;99.26;98779.27;1726173;83;21498;-79
2022/09/29 06:22:08;;;;;;;3.35;3.08;;;;;;;10.02;98.75;98785.71;1725284;82;21146;-81
2022/09/29 06:24:34;;;;;;;5.50;2.60;;;;;;;10.07;98.51;98781.54;1725733;83;21031;-81
2022/09/29 06:27:01;;;;;;;3.17;2.95;;;;;;;10.13;98.16;98775.55;1726007;83;21093;-82
2022/09/29 06:29:27;;;;;;;3.50;2.42;;;;;;;10.18;97.46;98781.92;1725564;83;21097;-80
2022/09/29 06:31:54;;;;;;;3.20;2.55;;;;;;;10.23;96.82;98783.88;1725818;83;21193;-83
2022/09/29 06:34:22;;;;;;;2.90;2.70;;;;;;;10.29;96.02;98784.94;1725408;83;21554;-80
2022/09/29 06:39:34;;;;;;;3.37;3.08;;;;;;;10.39;94.90;98790.20;1725946;83;27297;-81
2022/09/29 06:42:02;;;;;;;4.45;2.90;;;;;;;10.48;94.28;98799.91;1725993;83;21070;-81
2022/09/29 06:44:29;;;;;;;3.10;2.90;;;;;;;10.52;94.07;98793.57;1725649;83;21046;-80
2022/09/29 06:46:57;;;;;;;4.08;2.52;;;;;;;10.57;93.93;98792.89;1725840;83;21156;-81
2022/09/29 06:49:24;;;;;;;4.75;2.87;;;;;;;10.64;93.93;98790.83;1725875;83;21541;-79
2022/09/29 06:51:50;;;;;;;3.80;3.35;;;;;;;10.70;93.62;98800.61;1726056;83;22310;-79
2022/09/29 06:54:19;;;;;;;4.40;4.00;;;;;;;10.76;93.70;98806.07;1725767;83;21645;-79
2022/09/29 06:56:48;;;;;;;9.33;3.85;;;;;;;10.82;93.78;98802.28;1725503;83;21128;-79
2022/09/29 06:59:14;;;;;;;6.37;3.05;;;;;;;10.91;93.76;98805.78;1725523;83;21113;-80
2022/09/29 07:01:41;;;;;;;5.05;3.08;;;;;;;11.01;93.83;98807.08;1727594;83;21086;-78
2022/09/29 07:04:09;;;;;;;2.98;2.77;;;;;;;11.11;93.89;98800.44;1728238;83;21129;-79
2022/09/29 07:06:35;;;;;;;3.15;2.87;;;;;;;11.23;93.89;98802.06;1727558;83;21082;-79
2022/09/29 07:09:02;;;;;;;3.90;2.92;;;;;;;11.33;93.48;98808.14;1727733;83;21018;-79
2022/09/29 07:11:30;;;;;;;4.08;2.42;;;;;;;11.47;93.06;98809.25;1727873;83;21109;-78
2022/09/29 07:13:57;;;;;;;2.72;2.27;;;;;;;11.59;92.54;98808.62;1727593;83;21057;-81
2022/09/29 07:16:25;;;;;;;2.58;2.37;;;;;;;11.72;91.42;98808.88;1727966;82;21185;-81
2022/09/29 07:18:51;;;;;;;6.65;2.52;;;;;;;11.83;91.09;98806.99;1727905;83;21030;-80
2022/09/29 07:21:24;;;;;;;3.60;2.30;;;;;;;11.98;90.43;98809.34;1727636;83;21584;-80
2022/09/29 07:23:51;;;;;;;2.10;2.00;;;;;;;12.11;89.74;98806.45;1727946;83;21137;-81
2022/09/29 07:26:19;;;;;;;5.58;1.70;;;;;;;12.28;89.14;98810.00;1727716;82;21093;-81
2022/09/29 07:28:46;;;;;;;3.00;2.22;;;;;;;12.40;87.69;98819.89;1727914;83;21102;-80
2022/09/29 07:31:15;;;;;;;4.17;2.25;;;;;;;12.50;85.07;98813.19;1695343;83;21019;-81
2022/09/29 07:33:43;;;;;;;3.20;2.10;;;;;;;12.60;84.69;98807.79;1727860;82;21007;-80
2022/09/29 07:36:11;;;;;;;2.00;1.80;;;;;;;12.74;84.46;98806.19;1728317;83;21591;-81
2022/09/29 07:38:37;;;;;;;2.17;1.98;;;;;;;12.88;83.83;98806.29;1727928;83;21572;-81
2022/09/29 07:41:07;;;;;;;2.85;2.65;;;;;;;13.01;83.16;98798.07;1728202;83;20991;-79
2022/09/29 07:43:34;;;;;;;2.05;1.85;;;;;;;13.15;82.86;98792.48;1727827;83;21094;-79
2022/09/29 07:46:00;;;;;;;2.25;2.05;;;;;;;13.28;82.25;98789.52;1728185;83;21050;-79
2022/09/29 07:48:28;;;;;;;2.42;2.12;;;;;;;13.35;80.61;98778.16;1727709;83;21248;-79
2022/09/29 07:51:15;;;;;;;4.30;2.20;;;;;;;13.40;80.20;98783.16;1728238;83;21172;-81
2022/09/29 07:53:42;;;;;;;4.78;2.10;;;;;;;13.45;79.75;98794.31;1727720;83;21129;-79
2022/09/29 07:56:19;;;;;;;3.10;2.37;;;;;;;13.51;79.16;98803.22;1728228;83;21007;-80
2022/09/29 07:58:48;;;;;;;2.52;2.40;;;;;;;13.55;79.00;98799.47;1727574;83;21176;-81
2022/09/29 08:01:15;;;;;;;2.70;2.50;;;;;;;13.60;78.42;98811.08;1726309;82;22185;-79
2022/09/29 08:03:46;;;;;;;2.40;2.30;;;;;;;13.66;78.73;98806.28;1725833;83;21038;-80
2022/09/29 08:06:12;;;;;;;5.42;2.90;;;;;;;13.74;78.50;98808.48;1725494;82;21042;-81
2022/09/29 08:08:39;;;;;;;5.03;2.67;;;;;;;13.84;78.50;98808.80;1725780;83;21046;-79
2022/09/29 08:11:10;;;;;;;3.47;2.70;;;;;;;13.93;78.11;98806.44;1725783;83;21093;-79
2022/09/29 08:13:37;;;;;;;4.08;3.02;;;;;;;14.02;78.02;98807.70;1725873;83;21202;-79
2022/09/29 08:16:07;;;;;;;3.25;2.70;;;;;;;14.10;77.31;98808.54;1725620;83;21010;-79
2022/09/29 08:18:34;;;;;;;2.70;2.50;;;;;;;14.16;77.12;98811.30;1725604;82;21093;-80
2022/09/29 08:21:01;;;;;;;2.47;2.33;;;;;;;14.22;76.36;98810.47;1725951;83;21042;-80
2022/09/29 08:23:28;;;;;;;3.30;2.67;;;;;;;14.27;76.70;98808.84;1725560;83;21125;-79
2022/09/29 08:26:01;;;;;;;4.22;2.50;;;;;;;14.35;76.78;98798.64;1726161;83;21125;-81
2022/09/29 08:28:30;;;;;;;4.30;2.45;;;;;;;14.46;76.68;98799.31;1725474;83;21533;-79
2022/09/29 08:30:57;;;;;;;2.52;2.05;;;;;;;14.60;75.78;98813.03;1726238;83;21070;-78
2022/09/29 08:33:24;;;;;;;4.20;2.60;;;;;;;14.70;75.89;98810.19;1703175;83;21098;-80
2022/09/29 08:35:57;;;;;;;3.90;2.08;;;;;;;14.84;74.53;98807.53;1725698;83;21041;-78
2022/09/29 08:38:26;;;;;;;4.28;2.33;;;;;;;14.96;74.73;98805.02;1725811;83;21093;-80
2022/09/29 08:40:54;;;;;;;4.35;2.12;;;;;;;15.09;74.73;98799.31;1725824;83;21061;-80
2022/09/29 08:43:26;;;;;;;2.85;2.20;;;;;;;15.23;74.38;98801.93;1725942;83;21843;-78
2022/09/29 08:46:01;;;;;;;5.58;2.55;;;;;;;15.36;73.54;98801.12;1725619;83;21019;-79
2022/09/29 08:48:32;;;;;;;6.65;2.65;;;;;;;15.49;72.51;98803.33;1726031;83;21636;-80
2022/09/29 08:51:07;;;;;;;3.98;2.20;;;;;;;15.61;71.15;98804.32;1725420;82;21502;-79
2022/09/29 08:53:37;;;;;;;6.90;2.25;;;;;;;15.73;70.63;98796.02;1725828;83;21007;-76
2022/09/29 08:56:12;;;;;;;2.65;2.10;;;;;;;15.87;70.29;98797.76;1703304;83;21054;-79
2022/09/29 08:58:38;;;;;;;3.42;2.20;;;;;;;16.00;68.28;98792.48;1726100;83;21011;-80
2022/09/29 09:01:28;;;;;;;7.33;2.40;;;;;;;16.09;67.47;98791.86;1726911;82;21132;-79
2022/09/29 09:04:36;;;;;;;4.22;2.37;;;;;;;16.19;67.79;98791.59;1728011;82;21115;-77
2022/09/29 09:07:27;;;;;;;4.35;2.37;;;;;;;16.29;67.59;98783.81;1727801;82;21007;-78
2022/09/29 09:10:05;;;;;;;3.80;2.60;;;;;;;16.39;68.03;98788.87;1727994;82;21124;-80
2022/09/29 09:12:53;;;;;;;3.72;2.10;;;;;;;16.49;67.33;98789.05;1727745;82;21596;-79
2022/09/29 09:15:42;;;;;;;4.45;2.37;;;;;;;16.58;66.28;98781.77;1728098;83;21510;-79
2022/09/29 09:18:23;;;;;;;3.60;2.12;;;;;;;16.68;65.66;98777.98;1727793;83;21911;-80
2022/09/29 09:21:14;;;;;;;4.22;2.25;;;;;;;16.77;65.42;98785.77;1728113;83;21069;-80
2022/09/29 09:23:56;;;;;;;13.85;2.70;;;;;;;16.82;64.66;98786.28;1727764;83;21049;-78
2022/09/29 09:26:41;;;;;;;4.80;2.40;;;;;;;16.84;64.86;98786.56;1727970;83;21089;-78
2022/09/29 09:29:29;;;;;;;8.95;2.95;;;;;;;16.87;64.80;98778.86;1727859;83;21121;-79
2022/09/29 09:32:08;;;;;;;4.65;2.55;;;;;;;16.89;64.44;98780.92;1728013;83;21115;-78
2022/09/29 09:34:44;;;;;;;6.37;2.22;;;;;;;16.89;63.59;98783.58;1727571;83;21042;-79
2022/09/29 09:37:27;;;;;;;2.75;2.20;;;;;;;16.87;64.21;98782.84;1728251;83;20990;-78
2022/09/29 09:40:23;;;;;;;4.53;1.83;;;;;;;16.85;62.93;98784.28;1727912;83;20995;-80
2022/09/29 09:42:59;;;;;;;;;;;;;;;16.79;63.22;98783.84;1729745;83;21073;-80
2022/09/29 09:45:32;;;;;;;7.00;3.00;;;;;;;16.77;64.17;98779.13;1705309;83;21305;-79
2022/09/29 09:48:13;;;;;;;8.38;2.40;;;;;;;16.79;64.84;98785.17;1728072;82;21149;-80
2022/09/29 09:50:42;;;;;;;6.20;2.25;;;;;;;16.78;64.89;98779.02;1728056;83;21110;-79
2022/09/29 09:53:32;;;;;;;4.20;1.57;;;;;;;16.79;63.98;98785.17;1727917;83;21184;-79
2022/09/29 09:56:37;;;;;;;2.17;1.60;;;;;;;16.74;63.48;98788.64;1727918;82;21636;-79
2022/09/29 09:59:11;;;;;;;2.70;1.50;;;;;;;16.66;62.92;98786.06;1728219;83;21490;-79
2022/09/29 10:01:38;;;;;;;2.87;1.60;;;;;;;16.60;63.50;98793.12;1727969;82;21045;-76
2022/09/29 10:04:05;;;;;;;2.77;1.67;;;;;;;16.56;63.39;98785.02;1695433;83;21045;-80
2022/09/29 10:06:32;;;;;;;7.00;2.20;;;;;;;16.53;63.74;98785.23;1727810;83;21010;-78
2022/09/29 10:08:58;;;;;;;6.50;1.95;;;;;;;16.50;63.84;98789.43;1728092;83;21074;-80
2022/09/29 10:11:30;;;;;;;5.55;2.37;;;;;;;16.48;64.51;98786.88;1728042;83;21251;-79
2022/09/29 10:14:17;;;;;;;5.33;1.98;;;;;;;16.50;64.98;98790.76;1727889;83;21058;-79
2022/09/29 10:16:51;;;;;;;2.65;1.70;;;;;;;16.52;64.87;98788.84;1718855;83;21074;-80
2022/09/29 10:19:22;;;;;;;4.60;2.00;;;;;;;16.54;65.13;98788.24;1728172;83;21007;-78
2022/09/29 10:21:49;;;;;;;5.10;2.02;;;;;;;16.56;65.34;98791.66;1727950;82;21077;-79
2022/09/29 10:24:29;;;;;;;7.55;2.10;;;;;;;16.64;66.29;98790.64;1727925;83;21105;-81
2022/09/29 10:26:58;;;;;;;3.62;1.62;;;;;;;16.79;66.56;98790.48;1727716;83;21070;-80
2022/09/29 10:29:41;;;;;;;9.35;2.45;;;;;;;17.00;65.00;98796.94;1728140;83;21533;-80
2022/09/29 10:32:14;;;;;;;14.20;3.13;;;;;;;17.18;65.54;98785.91;1728594;83;21097;-79
2022/09/29 10:34:45;;;;;;;8.83;2.75;;;;;;;17.42;64.83;98792.08;1696613;83;21035;-78
2022/09/29 10:37:40;;;;;;;6.45;2.65;;;;;;;17.66;63.87;98793.87;1728068;83;21135;-78
2022/09/29 10:40:13;;;;;;;6.00;2.77;;;;;;;17.89;62.67;98791.32;1719699;83;21065;-79
2022/09/29 10:42:42;;;;;;;6.28;2.40;;;;;;;18.13;62.35;98784.09;1727836;83;21053;-79
2022/09/29 10:45:29;;;;;;;3.33;1.67;;;;;;;18.32;61.67;98790.64;1728016;83;21063;-79
2022/09/29 10:48:06;;;;;;;3.47;1.35;;;;;;;18.46;59.50;98789.09;1728077;82;21101;-80
2022/09/29 10:50:52;;;;;;;3.12;1.52;;;;;;;18.57;58.49;98789.06;1728401;83;21829;-79
2022/09/29 10:53:38;;;;;;;14.03;1.65;;;;;;;18.71;58.19;98781.32;1727995;83;21458;-78
2022/09/29 10:56:10;;;;;;;2.25;1.40;;;;;;;18.92;57.44;98771.27;1716089;83;21018;-79
2022/09/29 10:58:41;;;;;;;1.87;1.32;;;;;;;19.14;57.16;98770.34;1727756;82;21006;-79
2022/09/29 11:01:12;;;;;;;4.47;1.37;;;;;;;19.35;55.81;98773.55;1695763;83;22279;-79
2022/09/29 11:04:00;;;;;;;5.85;1.30;;;;;;;19.51;55.00;98764.63;1727774;83;21106;-80
2022/09/29 11:06:35;;;;;;;6.95;1.00;;;;;;;19.70;53.70;98768.42;1728289;83;21042;-79
2022/09/29 11:09:06;;;;;;;4.10;1.52;;;;;;;19.85;53.17;98760.48;1727626;83;21596;-79
2022/09/29 11:11:48;;;;;;;4.15;1.32;;;;;;;19.95;52.80;98773.89;1728537;83;21065;-80
2022/09/29 11:14:39;;;;;;;3.08;1.50;;;;;;;20.12;52.74;98765.27;1727944;83;21113;-79
2022/09/29 11:17:26;;;;;;;2.42;1.20;;;;;;;20.32;53.22;98765.38;1728161;83;21105;-79
2022/09/29 11:19:56;;;;;;;6.83;1.40;;;;;;;20.51;51.69;98768.14;1727773;83;21074;-79
2022/09/29 11:22:52;;;;;;;6.40;1.20;;;;;;;20.67;50.51;98764.98;1728268;83;21015;-79
2022/09/29 11:25:39;;;;;;;2.62;1.20;;;;;;;20.80;50.69;98768.77;1727740;82;21561;-79
2022/09/29 11:28:41;;;;;;;1.27;1.17;;;;;;;20.96;50.28;98761.53;1728319;83;21165;-78
2022/09/29 11:31:39;;;;;;;2.70;1.15;;;;;;;21.10;49.72;98760.31;1726908;83;21247;-79
2022/09/29 11:34:34;;;;;;;0.93;0.93;;;;;;;21.20;49.40;98762.98;1727797;83;21050;-78
2022/09/29 11:37:18;;;;;;;1.70;1.10;;;;;;;21.31;48.87;98770.88;1728110;82;21058;-79
2022/09/29 11:40:10;;;;;;;1.87;1.07;;;;;;;21.39;48.73;98764.84;1727813;82;21121;-79
2022/09/29 11:43:15;;;;;;;1.40;0.93;;;;;;;21.48;48.04;98762.17;1727994;83;21116;-78
2022/09/29 11:46:12;;;;;;;1.52;1.02;;;;;;;21.57;47.62;98751.60;1728391;83;21074;-78
2022/09/29 11:48:53;;;;;;;13.50;1.70;;;;;;;21.62;47.35;98760.05;1727514;83;21114;-80
2022/09/29 11:51:32;;;;;;;2.22;1.00;;;;;;;21.69;48.63;98754.50;1728016;82;21125;-79
2022/09/29 11:54:16;;;;;;;0.98;0.95;;;;;;;21.75;48.13;98760.60;1727824;83;21085;-80
2022/09/29 11:56:52;;;;;;;1.57;1.05;;;;;;;21.74;46.73;98766.97;1679449;82;21616;-78
2022/09/29 11:59:45;;;;;;;1.17;1.07;;;;;;;21.67;46.82;98764.48;1727661;82;21074;-78
2022/09/29 12:02:43;;;;;;;1.52;0.95;;;;;;;21.62;47.10;98770.77;1717509;82;21054;-80
2022/09/29 12:05:27;;;;;;;0.80;0.80;;;;;;;21.50;46.70;98774.94;1728024;83;21014;-79
2022/09/29 12:08:34;;;;;;;1.90;1.47;;;;;;;21.30;47.06;98770.05;1727566;83;21165;-78